sensor_id;sensor_type;location;lat;lon;timestamp;pressure;altitude;pressure_sealevel;temperature;humidity
63399;BME280;49533;-34.520;150.798;2023-05-19T00:02:19;100751.25;;;16.86;44.99
63399;BME280;49533;-34.520;150.798;2023-05-19T00:04:47;100780.38;;;17.15;44.98
63399;BME280;49533;-34.520;150.798;2023-05-19T00:07:17;100779.34;;;17.20;44.98
63399;BME280;49533;-34.520;150.798;2023-05-19T00:09:45;100730.66;;;16.92;44.89
63399;BME280;49533;-34.520;150.798;2023-05-19T00:12:13;100740.94;;;17.07;44.95
63399;BME280;49533;-34.520;150.798;2023-05-19T00:14:41;100770.75;;;17.33;45.03
63399;BME280;49533;-34.520;150.798;2023-05-19T00:17:08;100701.72;;;16.94;44.96
63399;BME280;49533;-34.520;150.798;2023-05-19T00:19:35;100768.31;;;17.44;44.78
63399;BME280;49533;-34.520;150.798;2023-05-19T00:22:03;100704.91;;;17.09;44.62
63399;BME280;49533;-34.520;150.798;2023-05-19T00:24:30;100758.69;;;17.50;44.91
63399;BME280;49533;-34.520;150.798;2023-05-19T00:26:59;100745.66;;;17.47;44.67
63399;BME280;49533;-34.520;150.798;2023-05-19T00:29:26;100702.78;;;17.30;44.92
63399;BME280;49533;-34.520;150.798;2023-05-19T00:31:53;100732.91;;;17.55;44.88
63399;BME280;49533;-34.520;150.798;2023-05-19T00:34:20;100693.16;;;17.36;44.59
63399;BME280;49533;-34.520;150.798;2023-05-19T00:36:47;100734.91;;;17.70;44.62
63399;BME280;49533;-34.520;150.798;2023-05-19T00:39:14;100717.44;;;17.63;44.36
63399;BME280;49533;-34.520;150.798;2023-05-19T00:41:41;100636.13;;;17.17;44.32
63399;BME280;49533;-34.520;150.798;2023-05-19T00:44:08;100728.59;;;17.82;44.21
63399;BME280;49533;-34.520;150.798;2023-05-19T00:46:35;100725.94;;;17.86;44.16
63399;BME280;49533;-34.520;150.798;2023-05-19T00:49:03;100701.34;;;17.77;44.35
63399;BME280;49533;-34.520;150.798;2023-05-19T00:51:30;100711.41;;;17.85;44.14
63399;BME280;49533;-34.520;150.798;2023-05-19T00:53:58;100714.34;;;17.92;44.51
63399;BME280;49533;-34.520;150.798;2023-05-19T00:56:25;100695.25;;;17.84;44.44
63399;BME280;49533;-34.520;150.798;2023-05-19T00:58:52;100708.94;;;17.96;44.34
63399;BME280;49533;-34.520;150.798;2023-05-19T01:01:21;100701.22;;;18.01;44.25
63399;BME280;49533;-34.520;150.798;2023-05-19T01:03:48;100702.03;;;18.02;44.01
63399;BME280;49533;-34.520;150.798;2023-05-19T01:06:16;100686.94;;;17.96;44.15
63399;BME280;49533;-34.520;150.798;2023-05-19T01:08:46;100695.91;;;18.09;44.28
63399;BME280;49533;-34.520;150.798;2023-05-19T01:11:13;100669.22;;;17.93;44.01
63399;BME280;49533;-34.520;150.798;2023-05-19T01:13:40;100688.19;;;18.14;44.15
63399;BME280;49533;-34.520;150.798;2023-05-19T01:16:24;100689.81;;;18.15;43.95
63399;BME280;49533;-34.520;150.798;2023-05-19T01:19:00;100684.38;;;18.19;43.98
63399;BME280;49533;-34.520;150.798;2023-05-19T01:22:05;100677.38;;;18.21;43.68
63399;BME280;49533;-34.520;150.798;2023-05-19T01:25:03;100605.28;;;17.80;43.80
63399;BME280;49533;-34.520;150.798;2023-05-19T01:30:29;100654.41;;;18.14;43.73
63399;BME280;49533;-34.520;150.798;2023-05-19T01:33:01;100664.16;;;18.27;43.39
63399;BME280;49533;-34.520;150.798;2023-05-19T01:35:30;100665.41;;;18.30;43.25
63399;BME280;49533;-34.520;150.798;2023-05-19T01:37:59;100637.72;;;18.22;43.56
63399;BME280;49533;-34.520;150.798;2023-05-19T01:40:27;100650.13;;;18.32;43.42
63399;BME280;49533;-34.520;150.798;2023-05-19T01:42:57;100511.97;;;17.56;43.63
63399;BME280;49533;-34.520;150.798;2023-05-19T01:45:28;100641.63;;;18.37;43.47
63399;BME280;49533;-34.520;150.798;2023-05-19T01:47:59;100515.81;;;17.67;43.06
63399;BME280;49533;-34.520;150.798;2023-05-19T01:50:27;100606.13;;;18.32;42.43
63399;BME280;49533;-34.520;150.798;2023-05-19T01:52:55;100607.88;;;18.40;42.57
63399;BME280;49533;-34.520;150.798;2023-05-19T01:55:22;100575.13;;;18.16;42.53
63399;BME280;49533;-34.520;150.798;2023-05-19T01:58:05;100567.22;;;18.14;42.50
63399;BME280;49533;-34.520;150.798;2023-05-19T02:00:52;100569.34;;;18.21;42.72
63399;BME280;49533;-34.520;150.798;2023-05-19T02:03:48;100554.97;;;18.12;42.61
63399;BME280;49533;-34.520;150.798;2023-05-19T02:06:37;100523.59;;;17.97;43.20
63399;BME280;49533;-34.520;150.798;2023-05-19T02:09:22;100572.88;;;18.21;42.74
63399;BME280;49533;-34.520;150.798;2023-05-19T02:12:03;100557.63;;;18.24;42.74
63399;BME280;49533;-34.520;150.798;2023-05-19T02:14:38;100551.78;;;18.25;42.89
63399;BME280;49533;-34.520;150.798;2023-05-19T02:17:05;100571.50;;;18.47;42.74
63399;BME280;49533;-34.520;150.798;2023-05-19T02:19:35;100551.13;;;18.32;42.82
63399;BME280;49533;-34.520;150.798;2023-05-19T02:22:03;100520.28;;;18.23;42.25
63399;BME280;49533;-34.520;150.798;2023-05-19T02:24:30;100550.56;;;18.42;42.39
63399;BME280;49533;-34.520;150.798;2023-05-19T02:26:57;100543.38;;;18.38;42.60
63399;BME280;49533;-34.520;150.798;2023-05-19T02:29:25;100558.09;;;18.45;42.73
63399;BME280;49533;-34.520;150.798;2023-05-19T02:31:52;100544.25;;;18.42;42.74
63399;BME280;49533;-34.520;150.798;2023-05-19T02:34:19;100543.53;;;18.45;42.97
63399;BME280;49533;-34.520;150.798;2023-05-19T02:36:47;100540.88;;;18.49;42.85
63399;BME280;49533;-34.520;150.798;2023-05-19T02:39:15;100489.78;;;18.12;43.02
63399;BME280;49533;-34.520;150.798;2023-05-19T02:41:42;100464.34;;;17.99;42.78
63399;BME280;49533;-34.520;150.798;2023-05-19T02:44:10;100496.84;;;18.29;42.38
63399;BME280;49533;-34.520;150.798;2023-05-19T02:46:37;100454.53;;;17.98;42.13
63399;BME280;49533;-34.520;150.798;2023-05-19T02:49:04;100517.72;;;18.50;42.08
63399;BME280;49533;-34.520;150.798;2023-05-19T02:51:31;100522.84;;;18.51;42.65
63399;BME280;49533;-34.520;150.798;2023-05-19T02:53:58;100522.41;;;18.49;42.53
63399;BME280;49533;-34.520;150.798;2023-05-19T02:56:25;100476.34;;;18.27;42.81
63399;BME280;49533;-34.520;150.798;2023-05-19T02:58:53;100490.69;;;18.36;42.52
63399;BME280;49533;-34.520;150.798;2023-05-19T03:01:20;100507.50;;;18.50;42.38
63399;BME280;49533;-34.520;150.798;2023-05-19T03:03:48;100505.91;;;18.49;42.52
63399;BME280;49533;-34.520;150.798;2023-05-19T03:06:15;100486.50;;;18.42;42.61
63399;BME280;49533;-34.520;150.798;2023-05-19T03:08:43;100503.16;;;18.49;42.46
63399;BME280;49533;-34.520;150.798;2023-05-19T03:11:10;100493.28;;;18.48;42.63
63399;BME280;49533;-34.520;150.798;2023-05-19T03:13:37;100493.72;;;18.50;42.63
63399;BME280;49533;-34.520;150.798;2023-05-19T03:16:04;100496.50;;;18.50;42.52
63399;BME280;49533;-34.520;150.798;2023-05-19T03:18:33;100489.31;;;18.45;42.58
63399;BME280;49533;-34.520;150.798;2023-05-19T03:21:01;100417.13;;;17.94;42.19
63399;BME280;49533;-34.520;150.798;2023-05-19T03:23:28;100442.91;;;18.05;42.20
63399;BME280;49533;-34.520;150.798;2023-05-19T03:25:55;100463.84;;;18.29;41.90
63399;BME280;49533;-34.520;150.798;2023-05-19T03:28:22;100483.91;;;18.49;41.92
63399;BME280;49533;-34.520;150.798;2023-05-19T03:30:52;100380.19;;;17.75;42.23
63399;BME280;49533;-34.520;150.798;2023-05-19T03:33:19;100486.56;;;18.45;42.25
63399;BME280;49533;-34.520;150.798;2023-05-19T03:35:46;100448.06;;;18.26;42.12
63399;BME280;49533;-34.520;150.798;2023-05-19T03:38:14;100439.72;;;18.22;42.10
63399;BME280;49533;-34.520;150.798;2023-05-19T03:40:41;100448.50;;;18.28;41.92
63399;BME280;49533;-34.520;150.798;2023-05-19T03:43:09;100486.16;;;18.43;41.83
63399;BME280;49533;-34.520;150.798;2023-05-19T03:45:36;100440.00;;;18.17;41.91
63399;BME280;49533;-34.520;150.798;2023-05-19T03:48:03;100469.56;;;18.40;41.96
63399;BME280;49533;-34.520;150.798;2023-05-19T03:50:31;100444.81;;;18.20;42.31
63399;BME280;49533;-34.520;150.798;2023-05-19T03:52:59;100455.53;;;18.25;42.21
63399;BME280;49533;-34.520;150.798;2023-05-19T03:55:27;100458.28;;;18.25;42.08
63399;BME280;49533;-34.520;150.798;2023-05-19T03:57:55;100414.09;;;17.99;42.36
63399;BME280;49533;-34.520;150.798;2023-05-19T04:00:22;100457.53;;;18.29;42.36
63399;BME280;49533;-34.520;150.798;2023-05-19T04:02:49;100467.97;;;18.39;42.16
63399;BME280;49533;-34.520;150.798;2023-05-19T04:05:16;100466.34;;;18.38;42.25
63399;BME280;49533;-34.520;150.798;2023-05-19T04:07:44;100403.47;;;17.97;42.16
63399;BME280;49533;-34.520;150.798;2023-05-19T04:10:12;100460.06;;;18.37;42.31
63399;BME280;49533;-34.520;150.798;2023-05-19T04:12:39;100460.44;;;18.36;42.35
63399;BME280;49533;-34.520;150.798;2023-05-19T04:15:06;100431.41;;;18.19;42.34
63399;BME280;49533;-34.520;150.798;2023-05-19T04:17:36;100401.84;;;17.96;42.52
63399;BME280;49533;-34.520;150.798;2023-05-19T04:20:04;100415.81;;;18.07;42.46
63399;BME280;49533;-34.520;150.798;2023-05-19T04:22:31;100428.59;;;18.15;42.56
63399;BME280;49533;-34.520;150.798;2023-05-19T04:24:59;100450.88;;;18.30;42.49
63399;BME280;49533;-34.520;150.798;2023-05-19T04:27:26;100444.06;;;18.23;42.16
63399;BME280;49533;-34.520;150.798;2023-05-19T04:29:55;100431.84;;;18.21;42.08
63399;BME280;49533;-34.520;150.798;2023-05-19T04:32:24;100398.47;;;18.03;42.28
63399;BME280;49533;-34.520;150.798;2023-05-19T04:34:51;100406.44;;;18.08;42.05
63399;BME280;49533;-34.520;150.798;2023-05-19T04:37:18;100300.63;;;17.44;42.46
63399;BME280;49533;-34.520;150.798;2023-05-19T04:39:45;100441.84;;;18.29;40.87
63399;BME280;49533;-34.520;150.798;2023-05-19T04:42:13;100432.19;;;18.19;39.83
63399;BME280;49533;-34.520;150.798;2023-05-19T04:44:47;100265.25;;;17.07;39.86
63399;BME280;49533;-34.520;150.798;2023-05-19T04:47:16;100441.22;;;18.20;39.95
63399;BME280;49533;-34.520;150.798;2023-05-19T04:49:46;100378.66;;;17.78;39.86
63399;BME280;49533;-34.520;150.798;2023-05-19T04:52:13;100395.84;;;17.91;38.96
63399;BME280;49533;-34.520;150.798;2023-05-19T04:54:41;100438.63;;;18.08;38.86
63399;BME280;49533;-34.520;150.798;2023-05-19T04:57:09;100431.75;;;17.98;39.47
63399;BME280;49533;-34.520;150.798;2023-05-19T04:59:36;100295.69;;;17.17;40.88
63399;BME280;49533;-34.520;150.798;2023-05-19T05:02:03;100432.75;;;18.09;41.13
63399;BME280;49533;-34.520;150.798;2023-05-19T05:04:30;100401.69;;;17.89;40.77
63399;BME280;49533;-34.520;150.798;2023-05-19T05:06:57;100404.38;;;17.86;41.10
63399;BME280;49533;-34.520;150.798;2023-05-19T05:09:25;100426.69;;;18.00;41.50
63399;BME280;49533;-34.520;150.798;2023-05-19T05:11:52;100391.38;;;17.83;41.67
63399;BME280;49533;-34.520;150.798;2023-05-19T05:14:19;100419.88;;;17.94;41.81
63399;BME280;49533;-34.520;150.798;2023-05-19T05:16:47;100432.03;;;18.12;41.69
63399;BME280;49533;-34.520;150.798;2023-05-19T05:19:14;100392.16;;;17.83;41.73
63399;BME280;49533;-34.520;150.798;2023-05-19T05:21:41;100382.69;;;17.80;41.70
63399;BME280;49533;-34.520;150.798;2023-05-19T05:24:09;100435.66;;;18.16;42.07
63399;BME280;49533;-34.520;150.798;2023-05-19T05:26:37;100461.66;;;18.19;41.95
63399;BME280;49533;-34.520;150.798;2023-05-19T05:29:04;100412.94;;;18.00;42.06
63399;BME280;49533;-34.520;150.798;2023-05-19T05:31:32;100423.38;;;18.10;41.92
63399;BME280;49533;-34.520;150.798;2023-05-19T05:34:00;100423.38;;;18.10;41.78
63399;BME280;49533;-34.520;150.798;2023-05-19T05:36:27;100441.16;;;18.16;42.32
63399;BME280;49533;-34.520;150.798;2023-05-19T05:38:54;100443.19;;;18.19;42.27
63399;BME280;49533;-34.520;150.798;2023-05-19T05:41:21;100445.16;;;18.19;42.34
63399;BME280;49533;-34.520;150.798;2023-05-19T05:43:48;100355.72;;;17.70;42.45
63399;BME280;49533;-34.520;150.798;2023-05-19T05:46:15;100404.31;;;18.01;42.28
63399;BME280;49533;-34.520;150.798;2023-05-19T05:48:43;100373.25;;;17.81;42.52
63399;BME280;49533;-34.520;150.798;2023-05-19T05:51:10;100431.47;;;18.22;42.58
63399;BME280;49533;-34.520;150.798;2023-05-19T05:53:40;100421.91;;;18.16;42.67
63399;BME280;49533;-34.520;150.798;2023-05-19T05:56:11;100394.06;;;17.98;42.91
63399;BME280;49533;-34.520;150.798;2023-05-19T05:58:38;100410.72;;;18.06;42.65
63399;BME280;49533;-34.520;150.798;2023-05-19T06:01:06;100437.06;;;18.26;42.73
63399;BME280;49533;-34.520;150.798;2023-05-19T06:03:40;100327.66;;;17.61;42.79
63399;BME280;49533;-34.520;150.798;2023-05-19T06:06:07;100414.84;;;18.15;43.08
63399;BME280;49533;-34.520;150.798;2023-05-19T06:08:35;100370.97;;;17.84;42.99
63399;BME280;49533;-34.520;150.798;2023-05-19T06:11:02;100398.81;;;18.01;43.14
63399;BME280;49533;-34.520;150.798;2023-05-19T06:13:34;100443.41;;;18.30;43.28
63399;BME280;49533;-34.520;150.798;2023-05-19T06:16:02;100446.53;;;18.29;43.44
63399;BME280;49533;-34.520;150.798;2023-05-19T06:18:29;100415.75;;;18.03;43.35
63399;BME280;49533;-34.520;150.798;2023-05-19T06:20:56;100441.78;;;18.25;43.04
63399;BME280;49533;-34.520;150.798;2023-05-19T06:23:23;100452.84;;;18.29;43.16
63399;BME280;49533;-34.520;150.798;2023-05-19T06:25:52;100466.59;;;18.29;42.98
63399;BME280;49533;-34.520;150.798;2023-05-19T06:28:19;100402.13;;;17.91;42.99
63399;BME280;49533;-34.520;150.798;2023-05-19T06:30:46;100452.16;;;18.16;43.15
63399;BME280;49533;-34.520;150.798;2023-05-19T06:33:13;100417.13;;;17.94;43.14
63399;BME280;49533;-34.520;150.798;2023-05-19T06:35:41;100479.09;;;18.27;43.22
63399;BME280;49533;-34.520;150.798;2023-05-19T06:38:08;100438.81;;;17.99;43.36
63399;BME280;49533;-34.520;150.798;2023-05-19T06:40:35;100451.06;;;18.01;43.28
63399;BME280;49533;-34.520;150.798;2023-05-19T06:43:03;100482.84;;;18.18;43.14
63399;BME280;49533;-34.520;150.798;2023-05-19T06:45:30;100458.06;;;17.99;43.04
63399;BME280;49533;-34.520;150.798;2023-05-19T06:47:57;100491.72;;;18.12;42.74
63399;BME280;49533;-34.520;150.798;2023-05-19T06:50:24;100451.81;;;17.83;42.69
63399;BME280;49533;-34.520;150.798;2023-05-19T06:52:51;100487.75;;;18.09;43.06
63399;BME280;49533;-34.520;150.798;2023-05-19T06:55:19;100431.78;;;17.66;43.20
63399;BME280;49533;-34.520;150.798;2023-05-19T06:57:46;100459.63;;;17.80;43.33
63399;BME280;49533;-34.520;150.798;2023-05-19T07:00:13;100494.59;;;17.99;43.37
63399;BME280;49533;-34.520;150.798;2023-05-19T07:02:44;100413.91;;;17.41;43.48
63399;BME280;49533;-34.520;150.798;2023-05-19T07:05:11;100436.50;;;17.50;43.62
63399;BME280;49533;-34.520;150.798;2023-05-19T07:07:38;100434.09;;;17.48;43.67
63399;BME280;49533;-34.520;150.798;2023-05-19T07:10:07;100497.47;;;17.87;42.31
63399;BME280;49533;-34.520;150.798;2023-05-19T07:12:34;100468.84;;;17.56;42.76
63399;BME280;49533;-34.520;150.798;2023-05-19T07:15:01;100488.22;;;17.64;42.72
63399;BME280;49533;-34.520;150.798;2023-05-19T07:17:28;100513.41;;;17.81;42.89
63399;BME280;49533;-34.520;150.798;2023-05-19T07:19:55;100507.81;;;17.78;43.22
63399;BME280;49533;-34.520;150.798;2023-05-19T07:22:22;100444.38;;;17.35;43.20
63399;BME280;49533;-34.520;150.798;2023-05-19T07:24:50;100468.22;;;17.47;43.41
63399;BME280;49533;-34.520;150.798;2023-05-19T07:27:17;100482.22;;;17.58;43.29
63399;BME280;49533;-34.520;150.798;2023-05-19T07:29:44;100511.19;;;17.71;43.56
63399;BME280;49533;-34.520;150.798;2023-05-19T07:32:11;100509.66;;;17.74;43.57
63399;BME280;49533;-34.520;150.798;2023-05-19T07:34:39;100497.47;;;17.55;43.29
63399;BME280;49533;-34.520;150.798;2023-05-19T07:37:07;100457.59;;;17.30;43.48
63399;BME280;49533;-34.520;150.798;2023-05-19T07:39:35;100473.19;;;17.42;43.67
63399;BME280;49533;-34.520;150.798;2023-05-19T07:42:02;100449.78;;;17.32;43.27
63399;BME280;49533;-34.520;150.798;2023-05-19T07:44:29;100527.16;;;17.66;44.08
63399;BME280;49533;-34.520;150.798;2023-05-19T07:46:57;100519.63;;;17.63;43.40
63399;BME280;49533;-34.520;150.798;2023-05-19T07:49:24;100485.84;;;17.30;43.87
63399;BME280;49533;-34.520;150.798;2023-05-19T07:51:51;100488.16;;;17.28;43.54
63399;BME280;49533;-34.520;150.798;2023-05-19T07:54:19;100497.53;;;17.27;43.70
63399;BME280;49533;-34.520;150.798;2023-05-19T07:56:46;100490.34;;;17.23;43.51
63399;BME280;49533;-34.520;150.798;2023-05-19T07:59:15;100538.94;;;17.50;43.62
63399;BME280;49533;-34.520;150.798;2023-05-19T08:01:42;100532.56;;;17.46;43.33
63399;BME280;49533;-34.520;150.798;2023-05-19T08:04:09;100502.03;;;17.20;43.44
63399;BME280;49533;-34.520;150.798;2023-05-19T08:06:37;100526.69;;;17.32;43.54
63399;BME280;49533;-34.520;150.798;2023-05-19T08:09:05;100545.06;;;17.44;42.98
63399;BME280;49533;-34.520;150.798;2023-05-19T08:11:32;100457.97;;;16.84;43.25
63399;BME280;49533;-34.520;150.798;2023-05-19T08:13:59;100535.25;;;17.30;43.13
63399;BME280;49533;-34.520;150.798;2023-05-19T08:16:26;100516.94;;;17.19;42.51
63399;BME280;49533;-34.520;150.798;2023-05-19T08:18:53;100488.22;;;17.00;42.73
63399;BME280;49533;-34.520;150.798;2023-05-19T08:21:21;100532.44;;;17.27;43.07
63399;BME280;49533;-34.520;150.798;2023-05-19T08:23:48;100476.59;;;16.91;42.98
63399;BME280;49533;-34.520;150.798;2023-05-19T08:26:15;100550.34;;;17.36;43.05
63399;BME280;49533;-34.520;150.798;2023-05-19T08:28:42;100511.94;;;17.08;43.23
63399;BME280;49533;-34.520;150.798;2023-05-19T08:31:09;100558.06;;;17.31;42.70
63399;BME280;49533;-34.520;150.798;2023-05-19T08:33:36;100573.81;;;17.34;42.91
63399;BME280;49533;-34.520;150.798;2023-05-19T08:36:04;100561.78;;;17.38;43.35
63399;BME280;49533;-34.520;150.798;2023-05-19T08:38:32;100562.22;;;17.41;43.63
63399;BME280;49533;-34.520;150.798;2023-05-19T08:41:00;100570.09;;;17.42;43.49
63399;BME280;49533;-34.520;150.798;2023-05-19T08:43:27;100535.34;;;17.18;43.74
63399;BME280;49533;-34.520;150.798;2023-05-19T08:45:54;100522.22;;;17.11;43.52
63399;BME280;49533;-34.520;150.798;2023-05-19T08:48:22;100586.66;;;17.46;43.36
63399;BME280;49533;-34.520;150.798;2023-05-19T08:51:01;100581.88;;;17.43;43.50
63399;BME280;49533;-34.520;150.798;2023-05-19T08:53:36;100563.44;;;17.27;43.34
63399;BME280;49533;-34.520;150.798;2023-05-19T08:56:13;100589.00;;;17.44;43.59
63399;BME280;49533;-34.520;150.798;2023-05-19T08:58:42;100527.19;;;17.06;43.21
63399;BME280;49533;-34.520;150.798;2023-05-19T09:01:13;100592.16;;;17.46;43.12
63399;BME280;49533;-34.520;150.798;2023-05-19T09:03:45;100597.25;;;17.44;43.02
63399;BME280;49533;-34.520;150.798;2023-05-19T09:06:14;100485.09;;;16.73;43.04
63399;BME280;49533;-34.520;150.798;2023-05-19T09:08:43;100530.22;;;16.88;42.99
63399;BME280;49533;-34.520;150.798;2023-05-19T09:11:10;100590.38;;;17.37;42.97
63399;BME280;49533;-34.520;150.798;2023-05-19T09:13:38;100577.16;;;17.27;43.04
63399;BME280;49533;-34.520;150.798;2023-05-19T09:16:05;100545.69;;;17.09;42.65
63399;BME280;49533;-34.520;150.798;2023-05-19T09:18:33;100577.06;;;17.24;42.77
63399;BME280;49533;-34.520;150.798;2023-05-19T09:21:01;100598.16;;;17.35;42.71
63399;BME280;49533;-34.520;150.798;2023-05-19T09:23:29;100605.81;;;17.42;42.42
63399;BME280;49533;-34.520;150.798;2023-05-19T09:26:02;100577.13;;;17.11;42.66
63399;BME280;49533;-34.520;150.798;2023-05-19T09:28:34;100564.34;;;17.03;42.63
63399;BME280;49533;-34.520;150.798;2023-05-19T09:31:04;100576.34;;;17.11;42.49
63399;BME280;49533;-34.520;150.798;2023-05-19T09:33:34;100616.16;;;17.33;42.58
63399;BME280;49533;-34.520;150.798;2023-05-19T09:36:02;100612.28;;;17.34;42.49
63399;BME280;49533;-34.520;150.798;2023-05-19T09:38:31;100606.56;;;17.27;42.57
63399;BME280;49533;-34.520;150.798;2023-05-19T09:40:59;100615.34;;;17.32;42.34
63399;BME280;49533;-34.520;150.798;2023-05-19T09:43:29;100620.84;;;17.32;41.99
63399;BME280;49533;-34.520;150.798;2023-05-19T09:46:04;100502.44;;;16.49;42.52
63399;BME280;49533;-34.520;150.798;2023-05-19T09:48:33;100564.50;;;16.94;42.18
63399;BME280;49533;-34.520;150.798;2023-05-19T09:51:02;100630.25;;;17.31;42.19
63399;BME280;49533;-34.520;150.798;2023-05-19T09:53:30;100619.41;;;17.23;42.12
63399;BME280;49533;-34.520;150.798;2023-05-19T09:55:58;100635.75;;;17.31;42.19
63399;BME280;49533;-34.520;150.798;2023-05-19T09:58:31;100640.78;;;17.29;41.96
63399;BME280;49533;-34.520;150.798;2023-05-19T10:01:02;100605.16;;;17.05;41.86
63399;BME280;49533;-34.520;150.798;2023-05-19T10:03:30;100619.34;;;17.07;41.98
63399;BME280;49533;-34.520;150.798;2023-05-19T10:06:00;100645.81;;;17.27;42.00
63399;BME280;49533;-34.520;150.798;2023-05-19T10:08:28;100597.00;;;16.92;42.12
63399;BME280;49533;-34.520;150.798;2023-05-19T10:10:56;100653.59;;;17.25;42.00
63399;BME280;49533;-34.520;150.798;2023-05-19T10:13:23;100554.16;;;16.63;41.87
63399;BME280;49533;-34.520;150.798;2023-05-19T10:15:51;100621.28;;;17.06;42.15
63399;BME280;49533;-34.520;150.798;2023-05-19T10:18:19;100603.72;;;16.95;41.91
63399;BME280;49533;-34.520;150.798;2023-05-19T10:20:49;100634.31;;;17.09;41.97
63399;BME280;49533;-34.520;150.798;2023-05-19T10:23:18;100633.53;;;17.09;42.09
63399;BME280;49533;-34.520;150.798;2023-05-19T10:25:45;100634.19;;;17.18;41.90
63399;BME280;49533;-34.520;150.798;2023-05-19T10:28:16;100616.09;;;16.89;41.87
63399;BME280;49533;-34.520;150.798;2023-05-19T10:30:48;100631.81;;;17.04;42.07
63399;BME280;49533;-34.520;150.798;2023-05-19T10:33:18;100615.03;;;16.93;42.09
63399;BME280;49533;-34.520;150.798;2023-05-19T10:36:13;100517.34;;;16.24;42.11
63399;BME280;49533;-34.520;150.798;2023-05-19T10:38:55;100588.47;;;16.69;41.69
63399;BME280;49533;-34.520;150.798;2023-05-19T10:41:46;100651.16;;;17.08;41.62
63399;BME280;49533;-34.520;150.798;2023-05-19T10:44:34;100575.78;;;16.52;41.55
63399;BME280;49533;-34.520;150.798;2023-05-19T10:47:06;100651.31;;;16.87;42.03
63399;BME280;49533;-34.520;150.798;2023-05-19T10:49:37;100643.91;;;16.87;41.89
63399;BME280;49533;-34.520;150.798;2023-05-19T10:52:19;100645.69;;;16.95;41.90
63399;BME280;49533;-34.520;150.798;2023-05-19T10:54:48;100646.19;;;16.85;41.82
63399;BME280;49533;-34.520;150.798;2023-05-19T10:57:15;100658.16;;;16.93;41.96
63399;BME280;49533;-34.520;150.798;2023-05-19T10:59:43;100660.78;;;16.89;41.79
63399;BME280;49533;-34.520;150.798;2023-05-19T11:02:37;100635.66;;;16.75;41.87
63399;BME280;49533;-34.520;150.798;2023-05-19T11:05:09;100628.47;;;16.58;41.90
63399;BME280;49533;-34.520;150.798;2023-05-19T11:07:37;100643.50;;;16.77;41.77
63399;BME280;49533;-34.520;150.798;2023-05-19T11:10:08;100648.47;;;16.83;41.62
63399;BME280;49533;-34.520;150.798;2023-05-19T11:12:41;100609.16;;;16.55;41.76
63399;BME280;49533;-34.520;150.798;2023-05-19T11:15:12;100651.91;;;16.80;41.70
63399;BME280;49533;-34.520;150.798;2023-05-19T11:17:40;100559.72;;;16.26;41.89
63399;BME280;49533;-34.520;150.798;2023-05-19T11:20:11;100627.44;;;16.63;41.87
63399;BME280;49533;-34.520;150.798;2023-05-19T11:23:04;100639.88;;;16.72;41.94
63399;BME280;49533;-34.520;150.798;2023-05-19T11:25:44;100623.09;;;16.62;41.79
63399;BME280;49533;-34.520;150.798;2023-05-19T11:28:16;100595.00;;;16.40;41.77
63399;BME280;49533;-34.520;150.798;2023-05-19T11:30:46;100627.53;;;16.66;41.79
63399;BME280;49533;-34.520;150.798;2023-05-19T11:33:15;100579.25;;;16.25;42.03
63399;BME280;49533;-34.520;150.798;2023-05-19T11:35:46;100598.91;;;16.39;41.72
63399;BME280;49533;-34.520;150.798;2023-05-19T11:38:17;100632.47;;;16.61;41.98
63399;BME280;49533;-34.520;150.798;2023-05-19T11:40:45;100582.56;;;16.30;41.78
63399;BME280;49533;-34.520;150.798;2023-05-19T11:43:13;100628.00;;;16.56;41.85
63399;BME280;49533;-34.520;150.798;2023-05-19T11:45:41;100582.00;;;16.25;41.95
63399;BME280;49533;-34.520;150.798;2023-05-19T11:48:12;100616.72;;;16.45;41.91
63399;BME280;49533;-34.520;150.798;2023-05-19T11:50:41;100630.66;;;16.52;42.00
63399;BME280;49533;-34.520;150.798;2023-05-19T11:53:11;100584.72;;;16.25;42.05
63399;BME280;49533;-34.520;150.798;2023-05-19T11:55:45;100607.91;;;16.40;41.97
63399;BME280;49533;-34.520;150.798;2023-05-19T11:58:13;100618.75;;;16.48;42.11
63399;BME280;49533;-34.520;150.798;2023-05-19T12:00:42;100605.31;;;16.31;42.00
63399;BME280;49533;-34.520;150.798;2023-05-19T12:03:11;100590.34;;;16.28;42.09
63399;BME280;49533;-34.520;150.798;2023-05-19T12:05:44;100604.84;;;16.29;42.10
63399;BME280;49533;-34.520;150.798;2023-05-19T12:08:12;100609.75;;;16.36;42.11
63399;BME280;49533;-34.520;150.798;2023-05-19T12:10:39;100540.69;;;15.93;42.54
63399;BME280;49533;-34.520;150.798;2023-05-19T12:13:07;100529.38;;;15.82;42.23
63399;BME280;49533;-34.520;150.798;2023-05-19T12:15:35;100580.31;;;16.08;42.17
63399;BME280;49533;-34.520;150.798;2023-05-19T12:18:02;100596.72;;;16.20;42.33
63399;BME280;49533;-34.520;150.798;2023-05-19T12:20:30;100538.03;;;15.84;42.31
63399;BME280;49533;-34.520;150.798;2023-05-19T12:22:58;100583.59;;;16.14;42.22
63399;BME280;49533;-34.520;150.798;2023-05-19T12:25:26;100513.81;;;15.74;42.55
63399;BME280;49533;-34.520;150.798;2023-05-19T12:27:58;100582.00;;;16.13;42.41
63399;BME280;49533;-34.520;150.798;2023-05-19T12:30:27;100588.41;;;16.17;42.36
63399;BME280;49533;-34.520;150.798;2023-05-19T12:32:55;100519.09;;;15.79;42.42
63399;BME280;49533;-34.520;150.798;2023-05-19T12:35:27;100548.53;;;15.95;42.64